Time,TemperatureF,DewpointF,PressureIn,WindDirection,WindDirectionDegrees,WindSpeedMPH,WindSpeedGustMPH,Humidity,HourlyPrecipIn,Conditions,Clouds,dailyrainin,SoftwareType,DateUTC
2013-10-20 00:03:00,41.1,36.9,29.83,NW,315,0.0,0.0,85,0.00,OVC,FEW,0.00,WeatherDisplay:10.37,2013-10-20 05:03:00,
2013-10-20 00:08:00,40.9,36.7,29.83,NW,315,0.0,0.0,85,0.00,OVC,FEW,0.00,WeatherDisplay:10.37,2013-10-20 05:08:00,
2013-10-20 00:13:00,40.6,36.7,29.83,NW,315,0.0,1.2,86,0.00,OVC,FEW,0.00,WeatherDisplay:10.37,2013-10-20 05:13:00,
2013-10-20 00:18:00,40.5,36.6,29.83,NW,315,0.1,0.0,86,0.00,OVC,FEW,0.00,WeatherDisplay:10.37,2013-10-20 05:18:00,
2013-10-20 00:23:00,40.4,36.5,29.83,NW,315,0.0,1.2,86,0.00,OVC,FEW,0.00,WeatherDisplay:10.37,2013-10-20 05:23:00,
2013-10-20 00:28:00,40.2,36.6,29.83,NW,315,0.0,0.0,87,0.00,OVC,FEW,0.00,WeatherDisplay:10.37,2013-10-20 05:28:00,
2013-10-20 00:33:00,40.1,36.5,29.83,NW,315,0.0,0.0,87,0.00,OVC,FEW,0.00,WeatherDisplay:10.37,2013-10-20 05:33:00,
2013-10-20 00:38:00,39.9,36.3,29.83,NW,315,0.0,1.2,87,0.00,OVC,FEW,0.00,WeatherDisplay:10.37,2013-10-20 05:38:00,
2013-10-20 00:43:00,39.8,36.2,29.83,NW,315,0.0,0.0,87,0.00,OVC,FEW,0.00,WeatherDisplay:10.37,2013-10-20 05:43:00,
2013-10-20 00:49:00,39.6,36.3,29.83,NW,315,0.0,0.0,88,0.00,OVC,FEW,0.00,WeatherDisplay:10.37,2013-10-20 05:49:00,
2013-10-20 00:54:00,39.5,36.2,29.83,NW,315,0.0,0.0,88,0.00,OVC,FEW,0.00,WeatherDisplay:10.37,2013-10-20 05:54:00,
2013-10-20 00:59:00,39.3,36.0,29.83,NW,315,0.0,1.2,88,0.00,OVC,FEW,0.00,WeatherDisplay:10.37,2013-10-20 05:59:00,
2013-10-20 01:04:00,39.5,36.2,29.83,NW,315,0.0,2.3,88,0.00,OVC,FEW,0.00,WeatherDisplay:10.37,2013-10-20 06:04:00,
2013-10-20 01:09:00,39.5,36.0,29.84,NW,315,0.0,0.0,87,0.00,OVC,FEW,0.00,WeatherDisplay:10.37,2013-10-20 06:09:00,
2013-10-20 01:14:00,39.5,36.0,29.84,NW,315,0.0,0.0,87,0.00,OVC,FEW,0.00,WeatherDisplay:10.37,2013-10-20 06:14:00,
2013-10-20 01:19:00,39.4,36.1,29.84,NW,315,0.1,1.2,88,0.00,OVC,FEW,0.00,WeatherDisplay:10.37,2013-10-20 06:19:00,
2013-10-20 01:24:00,39.5,36.0,29.83,NW,315,0.0,1.2,87,0.00,OVC,FEW,0.00,WeatherDisplay:10.37,2013-10-20 06:24:00,
2013-10-20 01:29:00,39.9,36.1,29.83,NW,315,0.1,1.2,86,0.00,OVC,FEW,0.00,WeatherDisplay:10.37,2013-10-20 06:29:00,
2013-10-20 01:34:00,40.8,36.3,29.83,NW,314,0.4,1.2,84,0.00,OVC,FEW,0.00,WeatherDisplay:10.37,2013-10-20 06:34:00,
2013-10-20 01:39:00,41.5,36.1,29.83,NW,314,0.6,1.2,81,0.00,OVC,FEW,0.00,WeatherDisplay:10.37,2013-10-20 06:39:00,
2013-10-20 01:44:00,42.1,36.4,29.84,NW,314,0.2,2.0,80,0.00,OVC,FEW,0.00,WeatherDisplay:10.37,2013-10-20 06:44:00,
2013-10-20 01:49:00,42.7,36.0,29.84,NW,314,0.4,2.3,77,0.00,OVC,FEW,0.00,WeatherDisplay:10.37,2013-10-20 06:49:00,
2013-10-20 01:54:00,43.0,36.0,29.84,NW,314,0.5,1.2,76,0.00,OVC,FEW,0.00,WeatherDisplay:10.37,2013-10-20 06:54:00,
2013-10-20 01:59:00,43.2,36.1,29.84,WNW,293,0.4,2.3,76,0.00,OVC,FEW,0.00,WeatherDisplay:10.37,2013-10-20 06:59:00,
2013-10-20 02:04:00,43.3,36.2,29.84,WNW,293,0.1,1.2,76,0.00,OVC,FEW,0.00,WeatherDisplay:10.37,2013-10-20 07:04:00,
2013-10-20 02:09:00,43.3,36.2,29.84,WNW,293,0.3,1.2,76,0.00,OVC,FEW,0.00,WeatherDisplay:10.37,2013-10-20 07:09:00,
2013-10-20 02:14:00,43.3,36.6,29.84,NNW,335,0.3,2.3,77,0.00,OVC,FEW,0.00,WeatherDisplay:10.37,2013-10-20 07:14:00,
2013-10-20 02:19:00,43.1,36.7,29.84,WNW,300,0.7,2.3,78,0.00,OVC,FEW,0.00,WeatherDisplay:10.37,2013-10-20 07:19:00,
2013-10-20 02:24:00,42.8,36.4,29.85,NNW,329,1.0,2.3,78,0.00,OVC,FEW,0.00,WeatherDisplay:10.37,2013-10-20 07:24:00,
2013-10-20 02:29:00,42.6,36.5,29.85,NNW,329,1.0,2.0,79,0.00,OVC,FEW,0.00,WeatherDisplay:10.37,2013-10-20 07:29:00,
2013-10-20 02:34:00,42.3,36.6,29.85,NNW,329,1.2,2.3,80,0.00,OVC,FEW,0.00,WeatherDisplay:10.37,2013-10-20 07:34:00,
2013-10-20 02:39:00,42.1,36.4,29.84,NNW,329,0.5,1.2,80,0.00,OVC,FEW,0.00,WeatherDisplay:10.37,2013-10-20 07:39:00,
2013-10-20 02:44:00,42.0,36.6,29.84,NNW,329,0.0,1.2,81,0.00,OVC,FEW,0.00,WeatherDisplay:10.37,2013-10-20 07:44:00,
2013-10-20 02:49:00,41.8,36.7,29.84,NNW,329,0.4,1.2,82,0.00,OVC,FEW,0.00,WeatherDisplay:10.37,2013-10-20 07:49:00,
2013-10-20 02:54:00,41.7,36.6,29.84,NNW,329,0.3,1.2,82,0.00,OVC,FEW,0.00,WeatherDisplay:10.37,2013-10-20 07:54:00,
2013-10-20 02:59:00,41.6,36.5,29.84,NNW,329,0.0,1.2,82,0.00,OVC,FEW,0.00,WeatherDisplay:10.37,2013-10-20 07:59:00,
2013-10-20 03:04:00,41.5,36.7,29.85,NNW,329,0.0,1.2,83,0.00,OVC,FEW,0.00,WeatherDisplay:10.37,2013-10-20 08:04:00,
2013-10-20 03:09:00,41.5,36.7,29.85,NNW,329,0.0,1.2,83,0.00,OVC,FEW,0.00,WeatherDisplay:10.37,2013-10-20 08:09:00,
2013-10-20 03:14:00,41.5,36.7,29.85,NNW,331,0.6,1.2,83,0.00,OVC,FEW,0.00,WeatherDisplay:10.37,2013-10-20 08:14:00,
2013-10-20 03:19:00,41.5,37.0,29.85,NNW,331,0.1,1.2,84,0.00,OVC,FEW,0.00,WeatherDisplay:10.37,2013-10-20 08:19:00,
2013-10-20 03:24:00,41.5,37.0,29.85,NNW,331,0.4,2.3,84,0.00,OVC,FEW,0.00,WeatherDisplay:10.37,2013-10-20 08:24:00,
2013-10-20 03:29:00,41.5,37.0,29.85,NNW,331,0.0,0.0,84,0.00,OVC,FEW,0.00,WeatherDisplay:10.37,2013-10-20 08:29:00,
2013-10-20 03:34:00,41.5,37.0,29.84,NNW,331,0.2,1.2,84,0.00,OVC,FEW,0.00,WeatherDisplay:10.37,2013-10-20 08:34:00,
2013-10-20 03:39:00,41.4,36.9,29.85,NNW,331,0.6,1.2,84,0.00,OVC,FEW,0.00,WeatherDisplay:10.37,2013-10-20 08:39:00,
2013-10-20 03:44:00,41.4,36.9,29.85,NNW,331,0.0,0.0,84,0.00,OVC,FEW,0.00,WeatherDisplay:10.37,2013-10-20 08:44:00,
2013-10-20 03:49:00,41.4,36.9,29.85,NNW,331,0.8,2.3,84,0.00,OVC,FEW,0.00,WeatherDisplay:10.37,2013-10-20 08:49:00,
2013-10-20 03:54:00,41.3,36.8,29.85,NNW,331,1.0,2.3,84,0.00,OVC,FEW,0.00,WeatherDisplay:10.37,2013-10-20 08:54:00,
2013-10-20 03:59:00,41.3,37.1,29.85,NNW,331,0.0,0.0,85,0.00,OVC,FEW,0.00,WeatherDisplay:10.37,2013-10-20 08:59:00,
2013-10-20 04:04:00,41.3,37.1,29.85,NNW,331,0.0,0.0,85,0.00,OVC,FEW,0.00,WeatherDisplay:10.37,2013-10-20 09:04:00,
2013-10-20 04:09:00,41.2,37.0,29.84,NNW,331,0.0,0.0,85,0.00,OVC,FEW,0.00,WeatherDisplay:10.37,2013-10-20 09:09:00,
2013-10-20 04:14:00,41.2,37.0,29.84,NNW,331,0.0,0.0,85,0.00,OVC,FEW,0.00,WeatherDisplay:10.37,2013-10-20 09:14:00,
2013-10-20 04:19:00,41.1,36.9,29.84,NNW,331,0.2,1.2,85,0.00,OVC,FEW,0.00,WeatherDisplay:10.37,2013-10-20 09:19:00,
2013-10-20 04:24:00,41.1,36.9,29.84,NNW,331,0.2,1.2,85,0.00,OVC,FEW,0.00,WeatherDisplay:10.37,2013-10-20 09:24:00,
2013-10-20 04:29:00,41.1,36.9,29.85,NNW,331,0.8,2.3,85,0.00,OVC,FEW,0.00,WeatherDisplay:10.37,2013-10-20 09:29:00,
2013-10-20 04:34:00,41.1,36.9,29.84,NNW,331,0.0,0.0,85,0.00,OVC,FEW,0.00,WeatherDisplay:10.37,2013-10-20 09:34:00,
2013-10-20 04:39:00,41.1,36.9,29.84,NNW,331,0.0,0.0,85,0.00,OVC,FEW,0.00,WeatherDisplay:10.37,2013-10-20 09:39:00,
2013-10-20 04:44:00,41.2,37.0,29.85,NNW,331,0.0,0.0,85,0.00,OVC,FEW,0.00,WeatherDisplay:10.37,2013-10-20 09:44:00,
2013-10-20 04:49:00,41.1,36.9,29.84,NNW,331,0.0,0.0,85,0.00,OVC,FEW,0.00,WeatherDisplay:10.37,2013-10-20 09:49:00,
2013-10-20 04:54:00,41.2,37.0,29.84,NNW,331,0.0,0.0,85,0.00,OVC,FEW,0.00,WeatherDisplay:10.37,2013-10-20 09:54:00,
2013-10-20 04:59:00,41.1,36.9,29.84,NNW,331,0.0,0.0,85,0.00,OVC,FEW,0.00,WeatherDisplay:10.37,2013-10-20 09:59:00,
2013-10-20 05:04:00,41.1,36.9,29.84,NNW,331,0.0,0.0,85,0.00,OVC,FEW,0.00,WeatherDisplay:10.37,2013-10-20 10:04:00,
2013-10-20 05:09:00,41.1,36.6,29.85,NNW,331,0.0,0.0,84,0.00,OVC,FEW,0.00,WeatherDisplay:10.37,2013-10-20 10:09:00,
2013-10-20 05:14:00,41.2,36.7,29.84,NNW,331,0.0,0.0,84,0.00,OVC,FEW,0.00,WeatherDisplay:10.37,2013-10-20 10:14:00,
2013-10-20 05:19:00,41.2,36.7,29.84,NNW,331,0.0,0.0,84,0.00,OVC,FEW,0.00,WeatherDisplay:10.37,2013-10-20 10:19:00,
2013-10-20 05:24:00,41.2,36.7,29.84,NNW,331,0.0,0.0,84,0.00,OVC,FEW,0.00,WeatherDisplay:10.37,2013-10-20 10:24:00,
2013-10-20 05:29:00,41.2,36.7,29.84,NNW,331,0.0,0.0,84,0.00,OVC,FEW,0.00,WeatherDisplay:10.37,2013-10-20 10:29:00,
2013-10-20 05:34:00,41.2,36.7,29.84,NNW,331,0.0,0.0,84,0.00,OVC,FEW,0.00,WeatherDisplay:10.37,2013-10-20 10:34:00,
2013-10-20 05:39:00,41.2,36.7,29.83,NNW,331,0.0,0.0,84,0.00,OVC,FEW,0.00,WeatherDisplay:10.37,2013-10-20 10:39:00,
2013-10-20 05:44:00,41.2,37.0,29.83,NNW,331,0.0,0.0,85,0.00,OVC,FEW,0.00,WeatherDisplay:10.37,2013-10-20 10:44:00,
2013-10-20 05:49:00,41.2,37.0,29.83,NNW,331,0.0,0.0,85,0.00,OVC,FEW,0.00,WeatherDisplay:10.37,2013-10-20 10:49:00,
2013-10-20 05:54:00,41.2,37.0,29.83,NNW,331,0.2,1.2,85,0.00,OVC,FEW,0.00,WeatherDisplay:10.37,2013-10-20 10:54:00,
2013-10-20 05:59:00,41.1,36.9,29.83,NNW,331,0.2,0.0,85,0.00,OVC,FEW,0.00,WeatherDisplay:10.37,2013-10-20 10:59:00,
2013-10-20 06:04:00,41.0,36.8,29.83,NNW,331,0.0,0.0,85,0.00,OVC,FEW,0.00,WeatherDisplay:10.37,2013-10-20 11:04:00,
2013-10-20 06:09:00,40.9,36.7,29.83,NNW,331,0.1,1.2,85,0.00,OVC,FEW,0.00,WeatherDisplay:10.37,2013-10-20 11:09:00,
2013-10-20 06:14:00,40.7,36.5,29.82,NNW,331,0.0,0.0,85,0.00,OVC,FEW,0.00,WeatherDisplay:10.37,2013-10-20 11:14:00,
2013-10-20 06:19:00,40.5,36.3,29.83,NNW,331,0.0,0.0,85,0.00,OVC,FEW,0.00,WeatherDisplay:10.37,2013-10-20 11:19:00,
2013-10-20 06:24:00,40.2,36.3,29.83,NNW,331,0.1,1.2,86,0.00,OVC,FEW,0.00,WeatherDisplay:10.37,2013-10-20 11:24:00,
2013-10-20 06:29:00,40.0,36.4,29.82,NNW,331,0.1,1.2,87,0.00,OVC,FEW,0.00,WeatherDisplay:10.37,2013-10-20 11:29:00,
2013-10-20 06:34:00,39.8,36.2,29.82,NNW,331,0.0,0.0,87,0.00,OVC,FEW,0.00,WeatherDisplay:10.37,2013-10-20 11:34:00,
2013-10-20 06:39:00,39.7,36.1,29.82,NNW,331,0.0,0.0,87,0.00,OVC,FEW,0.00,WeatherDisplay:10.37,2013-10-20 11:39:00,
2013-10-20 06:44:00,39.6,36.3,29.82,NNW,331,0.1,1.2,88,0.00,OVC,FEW,0.00,WeatherDisplay:10.37,2013-10-20 11:44:00,
2013-10-20 06:49:00,39.6,36.6,29.82,NNW,331,0.0,0.0,89,0.00,OVC,FEW,0.00,WeatherDisplay:10.37,2013-10-20 11:49:00,
2013-10-20 06:54:00,39.7,36.7,29.83,NNW,331,0.0,0.0,89,0.00,OVC,FEW,0.00,WeatherDisplay:10.37,2013-10-20 11:54:00,
2013-10-20 06:59:00,39.7,36.7,29.83,NNW,331,0.0,0.0,89,0.00,OVC,FEW,0.00,WeatherDisplay:10.37,2013-10-20 11:59:00,
2013-10-20 07:04:00,39.8,36.8,29.83,NNW,331,0.0,0.0,89,0.00,OVC,FEW,0.00,WeatherDisplay:10.37,2013-10-20 12:04:00,
2013-10-20 07:09:00,39.8,36.8,29.83,NNW,331,0.1,1.2,89,0.00,OVC,FEW,0.00,WeatherDisplay:10.37,2013-10-20 12:09:00,
2013-10-20 07:14:00,39.9,36.6,29.83,NNW,331,0.5,1.2,88,0.00,OVC,FEW,0.00,WeatherDisplay:10.37,2013-10-20 12:14:00,
2013-10-20 07:19:00,40.0,36.7,29.83,NNW,331,0.0,0.0,88,0.00,OVC,FEW,0.00,WeatherDisplay:10.37,2013-10-20 12:19:00,
2013-10-20 07:24:00,40.0,36.7,29.83,NNW,331,0.1,1.2,88,0.00,OVC,FEW,0.00,WeatherDisplay:10.37,2013-10-20 12:24:00,
2013-10-20 07:29:00,40.2,36.6,29.83,NNW,331,0.0,0.0,87,0.00,OVC,FEW,0.00,WeatherDisplay:10.37,2013-10-20 12:29:00,
2013-10-20 07:34:00,40.2,36.6,29.83,NNW,331,0.0,0.0,87,0.00,OVC,FEW,0.00,WeatherDisplay:10.37,2013-10-20 12:34:00,
2013-10-20 07:39:00,40.3,36.4,29.83,NNW,331,0.3,1.0,86,0.00,OVC,FEW,0.00,WeatherDisplay:10.37,2013-10-20 12:39:00,
2013-10-20 07:44:00,40.4,35.9,29.83,NNW,331,0.0,0.0,84,0.00,OVC,FEW,0.00,WeatherDisplay:10.37,2013-10-20 12:44:00,
2013-10-20 07:49:00,40.4,35.6,29.83,NNW,331,0.0,0.0,83,0.00,OVC,FEW,0.00,WeatherDisplay:10.37,2013-10-20 12:49:00,
2013-10-20 07:54:00,40.5,35.7,29.83,NNW,331,0.0,0.0,83,0.00,OVC,FEW,0.00,WeatherDisplay:10.37,2013-10-20 12:54:00,
2013-10-20 07:59:00,40.6,35.8,29.83,NNW,331,0.0,0.0,83,0.00,OVC,FEW,0.00,WeatherDisplay:10.37,2013-10-20 12:59:00,
2013-10-20 08:04:00,40.7,35.9,29.83,NNW,331,0.0,0.0,83,0.00,OVC,FEW,0.00,WeatherDisplay:10.37,2013-10-20 13:04:00,
2013-10-20 08:09:00,40.8,36.0,29.83,NNW,331,0.0,0.0,83,0.00,OVC,FEW,0.00,WeatherDisplay:10.37,2013-10-20 13:09:00,
2013-10-20 08:14:00,41.0,36.2,29.83,NNW,331,0.0,0.0,83,0.00,OVC,FEW,0.00,WeatherDisplay:10.37,2013-10-20 13:14:00,
2013-10-20 08:19:00,41.3,36.5,29.83,NNW,331,0.3,2.3,83,0.00,OVC,FEW,0.00,WeatherDisplay:10.37,2013-10-20 13:19:00,
2013-10-20 08:24:00,41.6,36.8,29.83,NNW,331,0.0,1.2,83,0.00,OVC,FEW,0.00,WeatherDisplay:10.37,2013-10-20 13:24:00,
2013-10-20 08:29:00,41.9,36.8,29.83,NNW,331,0.0,0.0,82,0.00,OVC,FEW,0.00,WeatherDisplay:10.37,2013-10-20 13:29:00,
2013-10-20 08:34:00,42.3,36.9,29.83,NNW,331,0.4,1.2,81,0.00,OVC,FEW,0.00,WeatherDisplay:10.37,2013-10-20 13:34:00,
2013-10-20 08:39:00,42.7,37.0,29.83,North,360,1.1,2.3,80,0.00,OVC,FEW,0.00,WeatherDisplay:10.37,2013-10-20 13:39:00,
2013-10-20 08:44:00,43.0,36.6,29.83,North,5,0.2,1.2,78,0.00,OVC,FEW,0.00,WeatherDisplay:10.37,2013-10-20 13:44:00,
2013-10-20 08:49:00,43.4,36.7,29.83,ENE,57,0.6,2.3,77,0.00,OVC,FEW,0.00,WeatherDisplay:10.37,2013-10-20 13:49:00,
2013-10-20 08:54:00,43.7,36.6,29.83,ENE,57,0.1,1.2,76,0.00,OVC,FEW,0.00,WeatherDisplay:10.37,2013-10-20 13:54:00,
2013-10-20 08:59:00,43.9,36.8,29.83,ENE,57,0.6,2.3,76,0.00,OVC,FEW,0.00,WeatherDisplay:10.37,2013-10-20 13:59:00,
2013-10-20 09:04:00,44.1,36.7,29.83,ENE,59,0.5,1.2,75,0.00,OVC,FEW,0.00,WeatherDisplay:10.37,2013-10-20 14:04:00,
2013-10-20 09:09:00,44.3,36.5,29.83,ENE,58,0.3,2.3,74,0.00,OVC,FEW,0.00,WeatherDisplay:10.37,2013-10-20 14:09:00,
2013-10-20 09:14:00,44.6,36.5,29.83,ENE,58,0.2,1.2,73,0.00,OVC,FEW,0.00,WeatherDisplay:10.37,2013-10-20 14:14:00,
2013-10-20 09:19:00,44.9,36.4,29.83,ENE,58,0.8,1.2,72,0.00,OVC,FEW,0.00,WeatherDisplay:10.37,2013-10-20 14:19:00,
2013-10-20 09:24:00,45.1,37.0,29.83,SSE,165,0.5,1.2,73,0.00,OVC,FEW,0.00,WeatherDisplay:10.37,2013-10-20 14:24:00,
2013-10-20 09:29:00,45.3,37.5,29.83,SSE,165,0.2,2.0,74,0.00,OVC,FEW,0.00,WeatherDisplay:10.37,2013-10-20 14:29:00,
2013-10-20 09:34:00,45.5,38.0,29.83,SSE,165,0.1,1.2,75,0.00,OVC,FEW,0.00,WeatherDisplay:10.37,2013-10-20 14:34:00,
2013-10-20 09:39:00,45.8,38.7,29.83,SSE,167,0.3,3.5,76,0.00,OVC,FEW,0.00,WeatherDisplay:10.37,2013-10-20 14:39:00,
2013-10-20 09:44:00,46.0,39.2,29.83,SSE,167,0.1,1.2,77,0.00,OVC,FEW,0.00,WeatherDisplay:10.37,2013-10-20 14:44:00,
2013-10-20 09:50:00,46.3,39.8,29.83,SSE,167,0.6,3.0,78,0.00,OVC,FEW,0.00,WeatherDisplay:10.37,2013-10-20 14:50:00,
2013-10-20 09:55:00,46.7,40.2,29.83,SSE,167,0.3,1.2,78,0.00,OVC,FEW,0.00,WeatherDisplay:10.37,2013-10-20 14:55:00,
2013-10-20 10:00:00,46.9,40.4,29.82,SSE,167,0.3,1.2,78,0.00,OVC,FEW,0.00,WeatherDisplay:10.37,2013-10-20 15:00:00,
2013-10-20 10:05:00,47.1,40.6,29.83,SSE,167,0.3,1.2,78,0.00,OVC,FEW,0.00,WeatherDisplay:10.37,2013-10-20 15:05:00,
2013-10-20 10:10:00,47.3,40.8,29.82,SSE,167,0.0,1.2,78,0.00,OVC,FEW,0.00,WeatherDisplay:10.37,2013-10-20 15:10:00,
2013-10-20 10:15:00,47.4,40.9,29.81,SE,140,1.1,3.5,78,0.00,OVC,FEW,0.00,WeatherDisplay:10.37,2013-10-20 15:15:00,
2013-10-20 10:20:00,47.5,41.3,29.81,SSW,207,0.8,2.3,79,0.00,OVC,FEW,0.00,WeatherDisplay:10.37,2013-10-20 15:20:00,
2013-10-20 10:25:00,47.8,41.3,29.80,ESE,105,1.5,3.5,78,0.00,OVC,FEW,0.00,WeatherDisplay:10.37,2013-10-20 15:25:00,
2013-10-20 10:30:00,48.0,41.8,29.80,East,96,0.8,2.3,79,0.00,OVC,FEW,0.00,WeatherDisplay:10.37,2013-10-20 15:30:00,
2013-10-20 10:35:00,48.3,41.8,29.80,West,272,0.9,3.0,78,0.00,OVC,FEW,0.00,WeatherDisplay:10.37,2013-10-20 15:35:00,
2013-10-20 10:40:00,48.6,41.7,29.80,WSW,246,0.4,2.3,77,0.00,OVC,FEW,0.00,WeatherDisplay:10.37,2013-10-20 15:40:00,
2013-10-20 10:45:00,49.0,42.1,29.81,WSW,246,0.4,1.2,77,0.00,OVC,FEW,0.00,WeatherDisplay:10.37,2013-10-20 15:45:00,
2013-10-20 10:50:00,49.3,42.1,29.81,South,169,0.2,1.2,76,0.00,OVC,FEW,0.00,WeatherDisplay:10.37,2013-10-20 15:50:00,
2013-10-20 10:55:00,49.7,42.1,29.80,South,169,0.4,1.2,75,0.00,OVC,FEW,0.00,WeatherDisplay:10.37,2013-10-20 15:55:00,
2013-10-20 11:00:00,50.1,42.5,29.79,South,169,0.2,1.2,75,0.00,OVC,FEW,0.00,WeatherDisplay:10.37,2013-10-20 16:00:00,
2013-10-20 11:05:00,50.4,42.4,29.79,SW,223,0.3,3.5,74,0.00,OVC,FEW,0.00,WeatherDisplay:10.37,2013-10-20 16:05:00,
2013-10-20 11:10:00,50.6,42.6,29.79,SW,223,0.0,1.2,74,0.00,OVC,FEW,0.00,WeatherDisplay:10.37,2013-10-20 16:10:00,
2013-10-20 11:15:00,51.2,42.8,29.78,ESE,116,1.9,3.5,73,0.00,OVC,FEW,0.00,WeatherDisplay:10.37,2013-10-20 16:15:00,
2013-10-20 11:20:00,51.5,42.8,29.78,East,92,1.7,3.5,72,0.00,OVC,FEW,0.00,WeatherDisplay:10.37,2013-10-20 16:20:00,
2013-10-20 11:25:00,51.6,42.9,29.78,East,83,1.4,3.5,72,0.00,OVC,FEW,0.00,WeatherDisplay:10.37,2013-10-20 16:25:00,
2013-10-20 11:30:00,51.9,43.2,29.77,South,190,1.2,2.3,72,0.00,OVC,FEW,0.00,WeatherDisplay:10.37,2013-10-20 16:30:00,
2013-10-20 11:35:00,52.1,43.3,29.78,South,189,0.5,2.3,72,0.00,OVC,FEW,0.00,WeatherDisplay:10.37,2013-10-20 16:35:00,
2013-10-20 11:36:00,52.1,43.3,29.77,ESE,113,0.6,2.3,72,0.00,OVC,FEW,0.00,WeatherDisplay:10.37,2013-10-20 16:36:00,
2013-10-20 11:41:00,52.2,43.1,29.77,West,265,0.9,2.3,71,0.00,OVC,FEW,0.00,WeatherDisplay:10.37,2013-10-20 16:41:00,
2013-10-20 11:46:00,52.5,43.4,29.78,NE,53,0.8,2.3,71,0.00,OVC,FEW,0.00,WeatherDisplay:10.37,2013-10-20 16:46:00,
2013-10-20 11:51:00,53.1,43.6,29.78,SSW,213,0.7,2.3,70,0.00,OVC,FEW,0.00,WeatherDisplay:10.37,2013-10-20 16:51:00,
2013-10-20 11:56:00,53.5,43.2,29.77,SW,234,0.6,3.5,68,0.00,OVC,FEW,0.00,WeatherDisplay:10.37,2013-10-20 16:56:00,
2013-10-20 12:01:00,53.7,43.8,29.78,SSE,167,0.3,1.2,69,0.00,OVC,FEW,0.00,WeatherDisplay:10.37,2013-10-20 17:01:00,
2013-10-20 12:06:00,54.1,43.8,29.77,SSE,165,0.8,1.2,68,0.00,OVC,FEW,0.00,WeatherDisplay:10.37,2013-10-20 17:06:00,
2013-10-20 12:11:00,54.4,43.7,29.77,WSW,246,1.4,4.0,67,0.00,OVC,FEW,0.00,WeatherDisplay:10.37,2013-10-20 17:11:00,
2013-10-20 12:16:00,54.5,43.8,29.77,SW,217,0.5,1.2,67,0.00,OVC,FEW,0.00,WeatherDisplay:10.37,2013-10-20 17:16:00,
2013-10-20 12:21:00,54.9,44.1,29.77,SW,225,1.2,2.3,67,0.00,OVC,FEW,0.00,WeatherDisplay:10.37,2013-10-20 17:21:00,
2013-10-20 12:26:00,55.1,43.9,29.77,SW,225,0.6,3.5,66,0.00,OVC,FEW,0.00,WeatherDisplay:10.37,2013-10-20 17:26:00,
2013-10-20 12:31:00,55.3,44.1,29.76,WSW,240,0.8,2.0,66,0.00,OVC,FEW,0.00,WeatherDisplay:10.37,2013-10-20 17:31:00,
2013-10-20 12:36:00,55.5,44.3,29.76,WSW,237,0.3,2.3,66,0.00,OVC,FEW,0.00,WeatherDisplay:10.37,2013-10-20 17:36:00,
2013-10-20 12:41:00,55.8,44.6,29.76,WSW,237,0.2,2.3,66,0.00,OVC,FEW,0.00,WeatherDisplay:10.37,2013-10-20 17:41:00,
2013-10-20 12:46:00,56.1,44.5,29.76,WSW,241,1.0,3.0,65,0.00,OVC,FEW,0.00,WeatherDisplay:10.37,2013-10-20 17:46:00,
2013-10-20 12:51:00,56.3,44.7,29.75,SW,234,0.7,2.3,65,0.00,OVC,FEW,0.00,WeatherDisplay:10.37,2013-10-20 17:51:00,
2013-10-20 12:56:00,56.5,44.0,29.75,SW,233,0.5,2.3,63,0.00,OVC,FEW,0.00,WeatherDisplay:10.37,2013-10-20 17:56:00,
2013-10-20 13:01:00,56.7,44.7,29.74,NW,317,0.2,1.2,64,0.00,OVC,FEW,0.00,WeatherDisplay:10.37,2013-10-20 18:01:00,
2013-10-20 13:06:00,57.1,45.0,29.74,WSW,251,1.0,3.5,64,0.00,OVC,FEW,0.00,WeatherDisplay:10.37,2013-10-20 18:06:00,
2013-10-20 13:11:00,57.7,44.8,29.75,WSW,237,0.7,3.5,62,0.00,OVC,FEW,0.00,WeatherDisplay:10.37,2013-10-20 18:11:00,
2013-10-20 13:16:00,58.3,44.9,29.74,SSW,209,0.9,2.3,61,0.00,OVC,FEW,0.00,WeatherDisplay:10.37,2013-10-20 18:16:00,
2013-10-20 13:21:00,58.7,44.8,29.74,SSW,209,0.8,2.3,60,0.00,OVC,FEW,0.00,WeatherDisplay:10.37,2013-10-20 18:21:00,
2013-10-20 13:26:00,59.0,45.1,29.73,SW,219,1.7,3.5,60,0.00,OVC,FEW,0.00,WeatherDisplay:10.37,2013-10-20 18:26:00,
2013-10-20 13:31:00,59.4,45.1,29.73,SW,222,1.0,2.3,59,0.00,OVC,FEW,0.00,WeatherDisplay:10.37,2013-10-20 18:31:00,
2013-10-20 13:36:00,59.9,44.6,29.74,West,273,1.4,3.5,57,0.00,OVC,FEW,0.00,WeatherDisplay:10.37,2013-10-20 18:36:00,
2013-10-20 13:41:00,60.0,43.8,29.73,SW,226,2.2,3.5,55,0.00,OVC,FEW,0.00,WeatherDisplay:10.37,2013-10-20 18:41:00,
2013-10-20 13:46:00,59.9,44.6,29.72,SSW,202,1.1,2.3,57,0.00,OVC,FEW,0.00,WeatherDisplay:10.37,2013-10-20 18:46:00,
2013-10-20 13:51:00,60.0,44.3,29.72,SSW,202,1.2,3.5,56,0.00,OVC,FEW,0.00,WeatherDisplay:10.37,2013-10-20 18:51:00,
2013-10-20 13:56:00,60.0,44.7,29.71,WSW,244,0.4,2.0,57,0.00,OVC,FEW,0.00,WeatherDisplay:10.37,2013-10-20 18:56:00,
2013-10-20 14:01:00,60.2,44.4,29.71,WSW,244,0.8,3.5,56,0.00,OVC,FEW,0.00,WeatherDisplay:10.37,2013-10-20 19:01:00,
2013-10-20 14:06:00,60.2,44.0,29.71,SW,219,1.2,3.5,55,0.00,OVC,FEW,0.00,WeatherDisplay:10.37,2013-10-20 19:06:00,
2013-10-20 14:11:00,60.3,44.5,29.72,NNW,348,1.0,3.0,56,0.00,OVC,FEW,0.00,WeatherDisplay:10.37,2013-10-20 19:11:00,
2013-10-20 14:16:00,60.4,44.6,29.71,West,269,0.2,1.2,56,0.00,OVC,FEW,0.00,WeatherDisplay:10.37,2013-10-20 19:16:00,
2013-10-20 14:21:00,60.7,45.4,29.72,WSW,250,0.6,2.3,57,0.00,OVC,FEW,0.00,WeatherDisplay:10.37,2013-10-20 19:21:00,
2013-10-20 14:26:00,61.0,44.7,29.72,SSW,208,1.3,2.3,55,0.00,OVC,FEW,0.00,WeatherDisplay:10.37,2013-10-20 19:26:00,
2013-10-20 14:31:00,61.1,44.3,29.73,South,186,1.3,3.5,54,0.00,OVC,FEW,0.00,WeatherDisplay:10.37,2013-10-20 19:31:00,
2013-10-20 14:36:00,61.3,44.0,29.72,SW,236,3.0,8.1,53,0.00,OVC,FEW,0.00,WeatherDisplay:10.37,2013-10-20 19:36:00,
2013-10-20 14:41:00,61.6,44.8,29.71,SSW,210,1.8,3.5,54,0.00,OVC,FEW,0.00,WeatherDisplay:10.37,2013-10-20 19:41:00,
2013-10-20 14:46:00,62.0,45.2,29.71,WSW,242,1.5,3.5,54,0.00,OVC,FEW,0.00,WeatherDisplay:10.37,2013-10-20 19:46:00,
2013-10-20 14:51:00,62.1,44.3,29.72,WSW,237,1.6,4.6,52,0.00,OVC,FEW,0.00,WeatherDisplay:10.37,2013-10-20 19:51:00,
2013-10-20 14:56:00,62.2,43.8,29.71,SW,223,1.2,3.5,51,0.00,OVC,FEW,0.00,WeatherDisplay:10.37,2013-10-20 19:56:00,
2013-10-20 15:01:00,62.2,44.3,29.72,WSW,243,1.8,3.5,52,0.00,OVC,FEW,0.00,WeatherDisplay:10.37,2013-10-20 20:01:00,
2013-10-20 15:06:00,61.8,44.0,29.72,WSW,238,1.8,4.6,52,0.00,OVC,FEW,0.00,WeatherDisplay:10.37,2013-10-20 20:06:00,
2013-10-20 15:11:00,61.5,43.7,29.72,WSW,241,1.5,3.5,52,0.00,OVC,FEW,0.00,WeatherDisplay:10.37,2013-10-20 20:11:00,
2013-10-20 15:16:00,61.2,43.4,29.72,SW,232,1.3,6.0,52,0.00,OVC,FEW,0.00,WeatherDisplay:10.37,2013-10-20 20:16:00,
2013-10-20 15:21:00,61.0,43.7,29.73,SW,232,1.7,3.5,53,0.00,OVC,FEW,0.00,WeatherDisplay:10.37,2013-10-20 20:21:00,
2013-10-20 15:26:00,60.9,43.1,29.74,WSW,255,2.7,3.5,52,0.00,OVC,FEW,0.00,WeatherDisplay:10.37,2013-10-20 20:26:00,
2013-10-20 15:31:00,60.9,42.6,29.74,SSW,209,2.7,3.5,51,0.00,OVC,FEW,0.00,WeatherDisplay:10.37,2013-10-20 20:31:00,
2013-10-20 15:36:00,60.9,43.1,29.74,WSW,248,2.2,7.0,52,0.00,OVC,FEW,0.00,WeatherDisplay:10.37,2013-10-20 20:36:00,
2013-10-20 15:41:00,60.8,43.1,29.74,WSW,254,3.1,4.6,52,0.00,OVC,FEW,0.00,WeatherDisplay:10.37,2013-10-20 20:41:00,
2013-10-20 15:46:00,60.8,43.1,29.73,SW,224,2.7,3.5,52,0.00,OVC,FEW,0.00,WeatherDisplay:10.37,2013-10-20 20:46:00,
2013-10-20 15:51:00,60.8,43.6,29.74,WSW,250,3.0,6.9,53,0.00,OVC,FEW,0.00,WeatherDisplay:10.37,2013-10-20 20:51:00,
2013-10-20 15:56:00,60.7,43.5,29.73,SW,230,1.4,4.6,53,0.00,OVC,FEW,0.00,WeatherDisplay:10.37,2013-10-20 20:56:00,
2013-10-20 16:01:00,60.7,44.4,29.74,WSW,257,1.0,2.3,55,0.00,OVC,FEW,0.00,WeatherDisplay:10.37,2013-10-20 21:01:00,
2013-10-20 16:06:00,60.7,43.9,29.74,WSW,251,0.9,3.5,54,0.00,OVC,FEW,0.00,WeatherDisplay:10.37,2013-10-20 21:06:00,
2013-10-20 16:11:00,60.8,44.0,29.74,WSW,248,0.4,2.3,54,0.00,OVC,FEW,0.00,WeatherDisplay:10.37,2013-10-20 21:11:00,
2013-10-20 16:16:00,60.8,44.0,29.74,SW,235,1.3,2.3,54,0.00,OVC,FEW,0.00,WeatherDisplay:10.37,2013-10-20 21:16:00,
2013-10-20 16:21:00,60.8,44.5,29.74,SW,236,0.6,2.3,55,0.00,OVC,FEW,0.00,WeatherDisplay:10.37,2013-10-20 21:21:00,
2013-10-20 16:26:00,60.9,44.6,29.74,WSW,240,0.6,2.0,55,0.00,OVC,FEW,0.00,WeatherDisplay:10.37,2013-10-20 21:26:00,
2013-10-20 16:31:00,60.9,44.6,29.73,SSW,204,0.9,3.5,55,0.00,OVC,FEW,0.00,WeatherDisplay:10.37,2013-10-20 21:31:00,
2013-10-20 16:36:00,60.9,44.6,29.73,SW,225,0.3,1.2,55,0.00,OVC,FEW,0.00,WeatherDisplay:10.37,2013-10-20 21:36:00,
2013-10-20 16:41:00,60.9,44.6,29.73,SW,225,0.7,2.3,55,0.00,OVC,FEW,0.00,WeatherDisplay:10.37,2013-10-20 21:41:00,
2013-10-20 16:46:00,60.9,44.6,29.73,SW,225,0.4,2.3,55,0.00,OVC,FEW,0.00,WeatherDisplay:10.37,2013-10-20 21:46:00,
2013-10-20 16:51:00,60.9,44.6,29.73,SE,134,0.1,1.2,55,0.00,OVC,FEW,0.00,WeatherDisplay:10.37,2013-10-20 21:51:00,
2013-10-20 16:56:00,60.9,44.6,29.73,SSW,204,0.9,2.3,55,0.00,OVC,FEW,0.00,WeatherDisplay:10.37,2013-10-20 21:56:00,
2013-10-20 17:01:00,60.8,45.0,29.73,SSW,213,0.4,2.3,56,0.00,OVC,FEW,0.00,WeatherDisplay:10.37,2013-10-20 22:01:00,
2013-10-20 17:06:00,60.8,44.5,29.73,SSW,213,1.1,3.5,55,0.00,OVC,FEW,0.00,WeatherDisplay:10.37,2013-10-20 22:06:00,
2013-10-20 17:11:00,60.8,44.5,29.73,SSW,213,0.5,2.0,55,0.00,OVC,FEW,0.00,WeatherDisplay:10.37,2013-10-20 22:11:00,
2013-10-20 17:16:00,60.8,44.5,29.73,SSW,213,0.5,1.2,55,0.00,OVC,FEW,0.00,WeatherDisplay:10.37,2013-10-20 22:16:00,
2013-10-20 17:21:00,60.8,44.5,29.73,SSW,213,0.2,1.2,55,0.00,OVC,FEW,0.00,WeatherDisplay:10.37,2013-10-20 22:21:00,
2013-10-20 17:26:00,60.8,44.5,29.73,SSW,213,0.6,2.3,55,0.00,OVC,FEW,0.00,WeatherDisplay:10.37,2013-10-20 22:26:00,
2013-10-20 17:31:00,60.7,44.4,29.73,SSW,213,0.5,1.2,55,0.00,OVC,FEW,0.00,WeatherDisplay:10.37,2013-10-20 22:31:00,
2013-10-20 17:36:00,60.7,44.4,29.73,SSW,213,0.3,1.0,55,0.00,OVC,FEW,0.00,WeatherDisplay:10.37,2013-10-20 22:36:00,
2013-10-20 17:41:00,60.5,44.2,29.73,SSW,213,0.3,1.2,55,0.00,OVC,FEW,0.00,WeatherDisplay:10.37,2013-10-20 22:41:00,
2013-10-20 17:46:00,60.4,44.2,29.73,SW,217,1.0,3.5,55,0.00,OVC,FEW,0.00,WeatherDisplay:10.37,2013-10-20 22:46:00,
2013-10-20 17:51:00,60.2,44.0,29.73,SW,217,0.7,2.3,55,0.00,OVC,FEW,0.00,WeatherDisplay:10.37,2013-10-20 22:51:00,
2013-10-20 17:56:00,60.0,44.3,29.74,SW,217,1.0,2.3,56,0.00,OVC,FEW,0.00,WeatherDisplay:10.37,2013-10-20 22:56:00,
2013-10-20 18:01:00,59.9,44.2,29.74,SW,217,0.5,1.2,56,0.00,OVC,FEW,0.00,WeatherDisplay:10.37,2013-10-20 23:01:00,
2013-10-20 18:06:00,59.7,44.4,29.74,SW,217,0.0,0.0,57,0.00,OVC,FEW,0.00,WeatherDisplay:10.37,2013-10-20 23:06:00,
2013-10-20 18:11:00,59.5,44.7,29.75,SW,217,0.1,1.2,58,0.00,OVC,FEW,0.00,WeatherDisplay:10.37,2013-10-20 23:11:00,
2013-10-20 18:16:00,59.3,44.5,29.75,SW,217,0.6,2.0,58,0.00,OVC,FEW,0.00,WeatherDisplay:10.37,2013-10-20 23:16:00,
2013-10-20 18:21:00,59.2,44.9,29.75,SW,217,0.3,1.2,59,0.00,OVC,FEW,0.00,WeatherDisplay:10.37,2013-10-20 23:21:00,
2013-10-20 18:26:00,59.1,44.3,29.75,SW,217,0.6,1.2,58,0.00,OVC,FEW,0.00,WeatherDisplay:10.37,2013-10-20 23:26:00,
2013-10-20 18:31:00,59.0,44.7,29.76,SW,217,0.1,2.3,59,0.00,OVC,FEW,0.00,WeatherDisplay:10.37,2013-10-20 23:31:00,
2013-10-20 18:36:00,58.9,45.5,29.76,SW,217,0.2,1.2,61,0.00,OVC,FEW,0.00,WeatherDisplay:10.37,2013-10-20 23:36:00,
2013-10-20 18:41:00,58.7,46.1,29.77,SW,217,0.3,2.3,63,0.00,OVC,FEW,0.00,WeatherDisplay:10.37,2013-10-20 23:41:00,
2013-10-20 18:46:00,58.4,45.8,29.77,SW,217,1.0,1.2,63,0.00,OVC,FEW,0.00,WeatherDisplay:10.37,2013-10-20 23:46:00,
2013-10-20 18:52:00,58.2,45.7,29.77,SW,217,0.7,2.0,63,0.00,OVC,FEW,0.00,WeatherDisplay:10.37,2013-10-20 23:52:00,
2013-10-20 18:57:00,58.0,46.3,29.78,SW,217,0.9,3.5,65,0.00,OVC,FEW,0.00,WeatherDisplay:10.37,2013-10-20 23:57:00,
2013-10-20 19:02:00,57.9,46.2,29.78,SW,217,1.1,2.3,65,0.00,OVC,FEW,0.00,WeatherDisplay:10.37,2013-10-21 00:02:00,
2013-10-20 19:07:00,57.7,46.0,29.78,SW,217,0.9,2.3,65,0.00,OVC,FEW,0.00,WeatherDisplay:10.37,2013-10-21 00:07:00,
2013-10-20 19:12:00,57.5,46.2,29.78,SW,217,0.7,2.3,66,0.00,OVC,FEW,0.00,WeatherDisplay:10.37,2013-10-21 00:12:00,
2013-10-20 19:17:00,57.4,46.5,29.78,SW,217,0.6,2.3,67,0.00,OVC,FEW,0.00,WeatherDisplay:10.37,2013-10-21 00:17:00,
2013-10-20 19:22:00,57.3,46.4,29.78,SW,217,0.2,1.2,67,0.00,OVC,FEW,0.00,WeatherDisplay:10.37,2013-10-21 00:22:00,
2013-10-20 19:27:00,57.2,46.3,29.78,SW,217,0.4,1.2,67,0.00,OVC,FEW,0.00,WeatherDisplay:10.37,2013-10-21 00:27:00,
2013-10-20 19:32:00,57.2,46.3,29.78,SW,217,0.3,2.3,67,0.00,OVC,FEW,0.00,WeatherDisplay:10.37,2013-10-21 00:32:00,
2013-10-20 19:37:00,57.1,46.6,29.78,SW,217,0.0,1.2,68,0.00,OVC,FEW,0.00,WeatherDisplay:10.37,2013-10-21 00:37:00,
2013-10-20 19:42:00,57.0,46.1,29.78,SW,217,0.0,0.0,67,0.00,OVC,FEW,0.00,WeatherDisplay:10.37,2013-10-21 00:42:00,
2013-10-20 19:47:00,56.9,46.4,29.78,SW,217,0.0,1.2,68,0.00,OVC,FEW,0.00,WeatherDisplay:10.37,2013-10-21 00:47:00,
2013-10-20 19:52:00,56.8,46.0,29.78,SW,217,0.6,2.0,67,0.00,OVC,FEW,0.00,WeatherDisplay:10.37,2013-10-21 00:52:00,
2013-10-20 19:57:00,56.8,46.0,29.77,SW,217,0.5,1.2,67,0.00,OVC,FEW,0.00,WeatherDisplay:10.37,2013-10-21 00:57:00,
2013-10-20 20:02:00,56.8,46.0,29.78,SW,217,0.0,1.2,67,0.00,OVC,FEW,0.00,WeatherDisplay:10.37,2013-10-21 01:02:00,
2013-10-20 20:07:00,56.7,45.9,29.77,SW,217,0.1,1.2,67,0.00,OVC,FEW,0.00,WeatherDisplay:10.37,2013-10-21 01:07:00,
2013-10-20 20:12:00,56.6,46.2,29.77,SW,217,0.5,1.2,68,0.00,OVC,FEW,0.00,WeatherDisplay:10.37,2013-10-21 01:12:00,
2013-10-20 20:17:00,56.6,46.2,29.77,SW,217,0.3,1.2,68,0.00,OVC,FEW,0.00,WeatherDisplay:10.37,2013-10-21 01:17:00,
2013-10-20 20:22:00,56.6,45.8,29.78,SW,217,0.3,1.2,67,0.00,OVC,FEW,0.00,WeatherDisplay:10.37,2013-10-21 01:22:00,
2013-10-20 20:27:00,56.7,45.9,29.78,SW,217,0.2,2.0,67,0.00,OVC,FEW,0.00,WeatherDisplay:10.37,2013-10-21 01:27:00,
2013-10-20 20:32:00,56.7,45.9,29.78,SW,217,0.6,2.3,67,0.00,OVC,FEW,0.00,WeatherDisplay:10.37,2013-10-21 01:32:00,
2013-10-20 20:37:00,56.7,45.9,29.78,SW,217,1.1,2.0,67,0.00,OVC,FEW,0.00,WeatherDisplay:10.37,2013-10-21 01:37:00,
2013-10-20 20:42:00,56.9,46.1,29.78,SW,217,0.5,1.2,67,0.00,OVC,FEW,0.00,WeatherDisplay:10.37,2013-10-21 01:42:00,
2013-10-20 20:47:00,56.9,45.7,29.78,SW,217,0.7,2.3,66,0.00,OVC,FEW,0.00,WeatherDisplay:10.37,2013-10-21 01:47:00,
2013-10-20 20:52:00,57.1,45.4,29.78,SW,217,0.5,2.3,65,0.00,OVC,FEW,0.00,WeatherDisplay:10.37,2013-10-21 01:52:00,
2013-10-20 20:57:00,57.1,45.4,29.78,SW,217,0.5,1.2,65,0.00,OVC,FEW,0.00,WeatherDisplay:10.37,2013-10-21 01:57:00,
2013-10-20 21:02:00,57.1,45.0,29.78,SW,217,0.8,2.3,64,0.00,OVC,FEW,0.00,WeatherDisplay:10.37,2013-10-21 02:02:00,
2013-10-20 21:07:00,57.3,45.2,29.78,SW,216,0.8,2.3,64,0.00,OVC,FEW,0.00,WeatherDisplay:10.37,2013-10-21 02:07:00,
2013-10-20 21:12:00,57.4,44.9,29.78,SW,216,0.6,1.2,63,0.00,OVC,FEW,0.00,WeatherDisplay:10.37,2013-10-21 02:12:00,
2013-10-20 21:17:00,57.6,44.7,29.78,SW,216,0.8,2.3,62,0.00,OVC,FEW,0.00,WeatherDisplay:10.37,2013-10-21 02:17:00,
2013-10-20 21:22:00,57.7,44.8,29.79,SW,216,0.7,2.3,62,0.00,OVC,FEW,0.00,WeatherDisplay:10.37,2013-10-21 02:22:00,
2013-10-20 21:27:00,57.8,44.9,29.78,SW,227,0.7,3.5,62,0.00,OVC,FEW,0.00,WeatherDisplay:10.37,2013-10-21 02:27:00,
2013-10-20 21:32:00,57.8,44.9,29.78,SW,227,0.8,1.2,62,0.00,OVC,FEW,0.00,WeatherDisplay:10.37,2013-10-21 02:32:00,
2013-10-20 21:37:00,57.9,44.5,29.79,SW,227,1.0,2.3,61,0.00,OVC,FEW,0.00,WeatherDisplay:10.37,2013-10-21 02:37:00,
2013-10-20 21:42:00,58.0,44.6,29.79,SW,227,0.7,2.3,61,0.00,OVC,FEW,0.00,WeatherDisplay:10.37,2013-10-21 02:42:00,
2013-10-20 21:47:00,58.1,44.7,29.79,SW,227,1.1,3.5,61,0.00,OVC,FEW,0.00,WeatherDisplay:10.37,2013-10-21 02:47:00,
2013-10-20 21:52:00,58.2,44.8,29.79,SW,227,0.8,2.3,61,0.00,OVC,FEW,0.00,WeatherDisplay:10.37,2013-10-21 02:52:00,
2013-10-20 21:57:00,58.2,44.8,29.79,South,181,0.7,1.2,61,0.00,OVC,FEW,0.00,WeatherDisplay:10.37,2013-10-21 02:57:00,
2013-10-20 22:02:00,58.3,44.9,29.80,SW,216,1.1,3.0,61,0.00,OVC,FEW,0.00,WeatherDisplay:10.37,2013-10-21 03:02:00,
2013-10-20 22:07:00,58.3,44.9,29.80,SSW,194,1.2,3.5,61,0.00,OVC,FEW,0.00,WeatherDisplay:10.37,2013-10-21 03:07:00,
2013-10-20 22:12:00,58.3,45.3,29.80,SSW,194,0.5,2.3,62,0.00,OVC,FEW,0.00,WeatherDisplay:10.37,2013-10-21 03:12:00,
2013-10-20 22:17:00,58.2,44.8,29.80,WNW,298,1.5,3.5,61,0.00,OVC,FEW,0.00,WeatherDisplay:10.37,2013-10-21 03:17:00,
2013-10-20 22:22:00,58.0,44.6,29.81,NW,312,2.0,3.5,61,0.00,OVC,FEW,0.00,WeatherDisplay:10.37,2013-10-21 03:22:00,
2013-10-20 22:27:00,57.8,44.4,29.81,WNW,300,3.6,8.1,61,0.00,OVC,FEW,0.00,WeatherDisplay:10.37,2013-10-21 03:27:00,
2013-10-20 22:32:00,57.3,43.5,29.81,NW,317,2.4,5.0,60,0.00,OVC,FEW,0.00,WeatherDisplay:10.37,2013-10-21 03:32:00,
2013-10-20 22:37:00,56.8,43.1,29.81,WNW,286,3.3,9.2,60,0.00,OVC,FEW,0.00,WeatherDisplay:10.37,2013-10-21 03:37:00,
2013-10-20 22:42:00,56.3,43.0,29.82,NW,316,1.9,4.6,61,0.00,OVC,FEW,0.00,WeatherDisplay:10.37,2013-10-21 03:42:00,
2013-10-20 22:47:00,55.8,43.0,29.82,NW,317,2.8,5.8,62,0.00,OVC,FEW,0.00,WeatherDisplay:10.37,2013-10-21 03:47:00,
2013-10-20 22:52:00,55.5,43.1,29.82,WNW,290,1.2,3.5,63,0.00,OVC,FEW,0.00,WeatherDisplay:10.37,2013-10-21 03:52:00,
2013-10-20 22:57:00,55.2,43.2,29.82,WNW,292,0.9,3.5,64,0.00,OVC,FEW,0.00,WeatherDisplay:10.37,2013-10-21 03:57:00,
2013-10-20 23:01:00,55.0,43.0,29.82,WNW,285,2.4,3.5,64,0.00,OVC,FEW,0.00,WeatherDisplay:10.37,2013-10-21 04:01:00,
2013-10-20 23:02:00,55.0,43.0,29.82,NW,316,2.4,3.5,64,0.00,OVC,FEW,0.00,WeatherDisplay:10.37,2013-10-21 04:02:00,
2013-10-20 23:07:00,54.7,43.2,29.82,NNW,337,1.7,3.0,65,0.00,OVC,FEW,0.00,WeatherDisplay:10.37,2013-10-21 04:07:00,
2013-10-20 23:12:00,54.4,42.9,29.82,NW,317,1.2,3.5,65,0.00,OVC,FEW,0.00,WeatherDisplay:10.37,2013-10-21 04:12:00,
2013-10-20 23:17:00,54.1,42.6,29.82,WNW,291,1.3,3.5,65,0.00,OVC,FEW,0.00,WeatherDisplay:10.37,2013-10-21 04:17:00,
2013-10-20 23:22:00,54.0,42.5,29.82,West,271,0.8,2.3,65,0.00,OVC,FEW,0.00,WeatherDisplay:10.37,2013-10-21 04:22:00,
2013-10-20 23:27:00,53.8,42.3,29.82,NW,312,1.0,5.0,65,0.00,OVC,FEW,0.00,WeatherDisplay:10.37,2013-10-21 04:27:00,
2013-10-20 23:32:00,53.7,42.6,29.83,NW,314,0.4,1.2,66,0.00,OVC,FEW,0.00,WeatherDisplay:10.37,2013-10-21 04:32:00,
2013-10-20 23:37:00,53.5,42.4,29.82,WNW,298,1.2,3.5,66,0.00,OVC,FEW,0.00,WeatherDisplay:10.37,2013-10-21 04:37:00,
2013-10-20 23:42:00,53.3,42.2,29.83,WNW,298,0.7,2.3,66,0.00,OVC,FEW,0.00,WeatherDisplay:10.37,2013-10-21 04:42:00,
2013-10-20 23:47:00,53.0,42.3,29.83,NNW,340,0.9,2.3,67,0.00,OVC,FEW,0.00,WeatherDisplay:10.37,2013-10-21 04:47:00,
2013-10-20 23:52:00,52.9,42.6,29.83,NNW,340,0.5,1.2,68,0.00,OVC,FEW,0.00,WeatherDisplay:10.37,2013-10-21 04:52:00,
2013-10-20 23:57:00,52.7,42.4,29.83,West,279,1.5,4.6,68,0.00,OVC,FEW,0.00,WeatherDisplay:10.37,2013-10-21 04:57:00,